Time;durP1;ratioP1;P1;durP2;ratioP2;P2;SDS_P1;SDS_P2;PMS_P1;PMS_P2;Temp;Humidity;BMP_temperature;BMP_pressure;BME280_temperature;BME280_humidity;BME280_pressure;Samples;Min_cycle;Max_cycle;Signal;HPM_P1;HPM_P2
2021/05/24 00:00:49;;;;;;;32.57;2.27;;;10.60;99.90;;;;;;5059646;28;20452;-85
2021/05/24 00:03:16;;;;;;;27.00;1.33;;;10.60;99.90;;;;;;5053735;28;20444;-84
2021/05/24 00:05:44;;;;;;;28.70;1.40;;;10.60;99.90;;;;;;5055994;28;20472;-84
2021/05/24 00:08:10;;;;;;;25.17;1.50;;;10.70;99.90;;;;;;5058807;28;20551;-81
2021/05/24 00:10:39;;;;;;;30.10;2.80;;;10.70;99.90;;;;;;5056290;28;20452;-82
2021/05/24 00:13:07;;;;;;;26.27;1.67;;;10.70;99.90;;;;;;5053934;28;20460;-80
2021/05/24 00:15:36;;;;;;;27.87;2.13;;;10.70;99.90;;;;;;5056104;28;20840;-81
2021/05/24 00:18:02;;;;;;;31.40;1.53;;;10.70;99.90;;;;;;5057078;28;21098;-83
2021/05/24 00:20:32;;;;;;;28.07;1.73;;;10.90;99.90;;;;;;5058430;28;20542;-83
2021/05/24 00:23:00;;;;;;;31.60;2.80;;;10.90;99.90;;;;;;5060144;28;20502;-81
2021/05/24 00:25:27;;;;;;;24.27;1.40;;;10.90;99.90;;;;;;5060700;28;20454;-82
2021/05/24 00:27:54;;;;;;;23.37;1.30;;;10.90;99.90;;;;;;5060950;28;20979;-81
2021/05/24 00:30:21;;;;;;;22.67;1.27;;;10.90;99.90;;;;;;5060874;28;20497;-81
2021/05/24 00:32:47;;;;;;;24.47;1.40;;;10.80;99.90;;;;;;5057574;28;20491;-81
2021/05/24 00:35:14;;;;;;;28.17;1.70;;;10.80;99.90;;;;;;5061796;28;20567;-82
2021/05/24 00:37:41;;;;;;;26.07;1.40;;;10.80;99.90;;;;;;5061795;28;20482;-83
2021/05/24 00:40:10;;;;;;;23.20;1.60;;;10.80;99.90;;;;;;5059554;28;20483;-84
2021/05/24 00:42:37;;;;;;;30.13;1.77;;;11.00;99.90;;;;;;5060168;28;20515;-82
2021/05/24 00:45:05;;;;;;;28.80;1.60;;;11.00;99.90;;;;;;5061376;28;20539;-82
2021/05/24 00:47:32;;;;;;;23.93;1.37;;;11.00;99.90;;;;;;5063538;28;20521;-82
2021/05/24 00:49:58;;;;;;;23.40;1.60;;;11.10;99.90;;;;;;5065602;28;20526;-83
2021/05/24 00:52:24;;;;;;;26.27;1.63;;;11.10;99.90;;;;;;5062850;28;20455;-83
2021/05/24 00:54:51;;;;;;;24.70;1.23;;;11.00;99.90;;;;;;5060972;28;20610;-84
2021/05/24 00:57:18;;;;;;;23.80;1.27;;;11.00;99.90;;;;;;5063507;28;20464;-83
2021/05/24 00:59:45;;;;;;;24.87;1.30;;;11.00;99.90;;;;;;5062497;28;20531;-81
2021/05/24 01:02:12;;;;;;;25.40;1.83;;;11.00;99.90;;;;;;5061182;28;20560;-82
2021/05/24 01:04:38;;;;;;;26.43;1.67;;;10.90;99.90;;;;;;5061265;28;20440;-82
2021/05/24 01:07:05;;;;;;;26.87;1.37;;;10.90;99.90;;;;;;5060317;28;21043;-83
2021/05/24 01:09:32;;;;;;;27.00;1.90;;;11.00;99.90;;;;;;5059332;28;20472;-82
2021/05/24 01:11:59;;;;;;;29.20;1.77;;;11.00;99.90;;;;;;5058931;28;20879;-83
2021/05/24 01:14:26;;;;;;;26.63;1.30;;;11.00;99.90;;;;;;5060392;28;20483;-81
2021/05/24 01:16:54;;;;;;;34.97;1.73;;;11.00;99.90;;;;;;5059531;28;20460;-83
2021/05/24 01:19:21;;;;;;;29.67;1.60;;;11.00;99.90;;;;;;5059412;28;20463;-82
2021/05/24 01:21:49;;;;;;;31.40;2.20;;;11.00;99.90;;;;;;5058957;28;20982;-81
2021/05/24 01:24:17;;;;;;;31.17;1.70;;;11.10;99.90;;;;;;5060091;28;20474;-85
2021/05/24 01:26:44;;;;;;;54.03;46.53;;;11.30;99.90;;;;;;5059351;28;20456;-82
2021/05/24 01:29:11;;;;;;;29.47;1.43;;;11.30;99.90;;;;;;5060020;28;20521;-82
2021/05/24 01:31:37;;;;;;;28.63;1.57;;;11.50;99.90;;;;;;5057656;28;20528;-82
2021/05/24 01:34:04;;;;;;;28.20;1.67;;;11.70;99.90;;;;;;5060964;28;20941;-83
2021/05/24 01:36:31;;;;;;;27.13;1.50;;;11.80;99.90;;;;;;5060386;28;20452;-83
2021/05/24 01:38:59;;;;;;;27.27;1.40;;;11.80;99.90;;;;;;5058643;28;20483;-82
2021/05/24 01:41:25;;;;;;;26.97;1.30;;;11.90;99.90;;;;;;5058923;28;20486;-82
2021/05/24 01:43:51;;;;;;;25.47;1.50;;;11.90;99.90;;;;;;5060573;28;20510;-84
2021/05/24 01:46:18;;;;;;;27.80;1.87;;;11.90;99.90;;;;;;5060498;28;20826;-82
2021/05/24 01:48:45;;;;;;;26.37;1.20;;;12.10;99.90;;;;;;5061150;28;20472;-85
2021/05/24 01:51:11;;;;;;;25.50;1.50;;;12.00;99.90;;;;;;5059659;28;20452;-83
2021/05/24 01:53:38;;;;;;;28.33;1.63;;;12.00;99.90;;;;;;5060046;28;20484;-84
2021/05/24 01:56:06;;;;;;;24.00;1.07;;;12.10;99.90;;;;;;5060734;28;20551;-84
2021/05/24 01:58:33;;;;;;;27.40;1.43;;;12.10;99.90;;;;;;5060789;28;20529;-84
2021/05/24 02:01:07;;;;;;;28.13;1.60;;;12.00;99.90;;;;;;5060076;28;20891;-84
2021/05/24 02:03:33;;;;;;;29.73;2.30;;;11.90;99.90;;;;;;5059865;28;20454;-85
2021/05/24 02:06:01;;;;;;;28.27;1.60;;;11.70;99.90;;;;;;5060400;28;20946;-84
2021/05/24 02:08:28;;;;;;;29.50;1.57;;;11.60;99.90;;;;;;5060494;28;20484;-85
2021/05/24 02:10:55;;;;;;;27.60;1.80;;;11.60;99.90;;;;;;5059970;28;20501;-83
2021/05/24 02:13:22;;;;;;;27.47;1.50;;;11.60;99.90;;;;;;5057956;28;20448;-85
2021/05/24 02:15:49;;;;;;;29.17;1.33;;;11.60;99.90;;;;;;5059356;28;20969;-84
2021/05/24 02:18:15;;;;;;;29.97;1.80;;;11.50;99.90;;;;;;5059432;28;20501;-85
2021/05/24 02:20:41;;;;;;;30.23;1.80;;;11.40;99.90;;;;;;5058635;28;20462;-84
2021/05/24 02:23:09;;;;;;;32.83;1.63;;;11.40;99.90;;;;;;5059205;28;20546;-84
2021/05/24 02:25:36;;;;;;;35.37;1.70;;;11.40;99.90;;;;;;5059237;28;20448;-85
2021/05/24 02:28:04;;;;;;;34.97;3.73;;;11.40;99.90;;;;;;5059344;28;20471;-84
2021/05/24 02:30:31;;;;;;;35.60;2.27;;;11.40;99.90;;;;;;5058602;28;20440;-85
2021/05/24 02:32:58;;;;;;;35.07;4.00;;;11.30;99.90;;;;;;5057425;28;20452;-84
2021/05/24 02:35:27;;;;;;;30.27;1.80;;;11.30;99.90;;;;;;5056517;28;20586;-83
2021/05/24 02:37:54;;;;;;;33.13;3.67;;;11.30;99.90;;;;;;5058594;28;20475;-85
2021/05/24 02:40:22;;;;;;;31.47;1.83;;;11.30;99.90;;;;;;5059907;28;20456;-84
2021/05/24 02:42:50;;;;;;;33.67;2.27;;;11.30;99.90;;;;;;5058252;28;20510;-83
2021/05/24 02:45:18;;;;;;;30.70;1.80;;;11.20;99.90;;;;;;5058466;28;20984;-84
2021/05/24 02:47:45;;;;;;;34.10;3.80;;;11.20;99.90;;;;;;5059035;28;20472;-85
2021/05/24 02:50:16;;;;;;;34.07;3.20;;;11.20;99.90;;;;;;5058190;28;20459;-85
2021/05/24 02:52:43;;;;;;;32.87;4.60;;;11.20;99.90;;;;;;5056773;28;20491;-83
2021/05/24 02:55:10;;;;;;;28.70;1.30;;;11.30;99.90;;;;;;5057188;28;20487;-84
2021/05/24 02:57:36;;;;;;;29.57;1.33;;;11.40;99.90;;;;;;5058426;28;20885;-84
2021/05/24 03:00:04;;;;;;;29.00;1.10;;;11.50;99.90;;;;;;5059688;28;20539;-85
2021/05/24 03:02:31;;;;;;;30.97;2.87;;;11.40;99.90;;;;;;5058307;28;20460;-84
2021/05/24 03:04:58;;;;;;;35.17;3.20;;;11.40;99.90;;;;;;5059426;28;20509;-85
2021/05/24 03:07:24;;;;;;;36.07;1.80;;;11.40;99.90;;;;;;5057769;28;20482;-82
2021/05/24 03:09:50;;;;;;;28.83;2.77;;;11.50;99.90;;;;;;5058722;28;20477;-85
2021/05/24 03:12:17;;;;;;;30.77;1.43;;;11.50;99.90;;;;;;5057907;28;20543;-84
2021/05/24 03:14:43;;;;;;;33.00;2.10;;;11.60;99.90;;;;;;5058812;28;20513;-84
2021/05/24 03:17:10;;;;;;;31.87;2.33;;;11.60;99.90;;;;;;5058057;28;20511;-84
2021/05/24 03:19:36;;;;;;;27.70;1.40;;;11.70;99.90;;;;;;5058261;28;20476;-83
2021/05/24 03:22:04;;;;;;;32.47;1.97;;;11.70;99.90;;;;;;5057190;28;20524;-83
2021/05/24 03:24:30;;;;;;;31.10;3.10;;;11.70;99.90;;;;;;5058633;28;20539;-85
2021/05/24 03:26:56;;;;;;;33.37;6.10;;;11.70;99.90;;;;;;5058922;28;20546;-84
2021/05/24 03:29:23;;;;;;;30.67;1.90;;;11.70;99.90;;;;;;5057617;28;20509;-85
2021/05/24 03:31:49;;;;;;;36.20;6.03;;;11.80;99.90;;;;;;5055896;28;20509;-85
2021/05/24 03:34:15;;;;;;;34.83;2.30;;;11.80;99.90;;;;;;5058180;28;20574;-84
2021/05/24 03:36:42;;;;;;;31.80;1.40;;;11.80;99.90;;;;;;5056102;28;20509;-85
2021/05/24 03:39:09;;;;;;;32.03;3.23;;;11.80;99.90;;;;;;5055351;28;20456;-85
2021/05/24 03:41:35;;;;;;;29.00;1.57;;;11.80;99.90;;;;;;5054984;28;20960;-85
2021/05/24 03:44:02;;;;;;;31.87;1.57;;;11.90;99.90;;;;;;5055659;28;20456;-84
2021/05/24 03:46:28;;;;;;;32.40;2.10;;;11.90;99.90;;;;;;5055630;28;20454;-84
2021/05/24 03:48:54;;;;;;;30.67;1.30;;;11.90;99.90;;;;;;5056473;28;20559;-85
2021/05/24 03:51:21;;;;;;;33.87;4.63;;;11.90;99.90;;;;;;5051702;28;20468;-86
2021/05/24 03:53:47;;;;;;;35.27;5.77;;;11.90;99.90;;;;;;5054418;28;20564;-85
2021/05/24 03:56:14;;;;;;;39.10;10.87;;;11.90;99.90;;;;;;5058057;28;20517;-85
2021/05/24 03:58:40;;;;;;;30.07;1.57;;;11.90;99.90;;;;;;5057620;28;20464;-85
2021/05/24 04:01:07;;;;;;;31.13;1.20;;;12.00;99.90;;;;;;5056845;28;20464;-85
2021/05/24 04:03:34;;;;;;;33.00;1.60;;;12.10;99.90;;;;;;5056089;28;20458;-85
2021/05/24 04:06:02;;;;;;;34.50;3.60;;;12.20;99.90;;;;;;5056377;28;20953;-85
2021/05/24 04:08:34;;;;;;;30.27;1.50;;;12.40;99.90;;;;;;5055885;28;20483;-85
2021/05/24 04:11:02;;;;;;;28.83;1.73;;;12.50;99.90;;;;;;5036458;28;20897;-85
2021/05/24 04:13:29;;;;;;;33.00;3.47;;;12.60;99.90;;;;;;5056750;23;20860;-82
2021/05/24 04:15:57;;;;;;;36.50;2.77;;;12.70;99.90;;;;;;5034226;28;20449;-82
2021/05/24 04:18:25;;;;;;;30.30;1.90;;;12.80;99.90;;;;;;5033169;28;20448;-84
2021/05/24 04:20:51;;;;;;;35.40;2.50;;;12.80;99.90;;;;;;5032073;28;21049;-83
2021/05/24 04:23:18;;;;;;;47.23;30.53;;;12.90;99.90;;;;;;5032944;28;20480;-84
2021/05/24 04:25:44;;;;;;;24.67;1.00;;;13.00;99.90;;;;;;5033624;28;20467;-87
2021/05/24 04:28:11;;;;;;;25.73;1.10;;;13.10;99.90;;;;;;5040148;28;20449;-86
2021/05/24 04:30:38;;;;;;;25.37;2.10;;;13.10;99.90;;;;;;5039850;28;21151;-86
2021/05/24 04:33:04;;;;;;;26.90;1.43;;;13.20;99.90;;;;;;5039952;28;20469;-85
2021/05/24 04:35:31;;;;;;;28.63;1.40;;;13.10;99.90;;;;;;5046704;28;20495;-85
2021/05/24 04:37:57;;;;;;;25.57;1.13;;;13.10;99.90;;;;;;5053895;28;20464;-83
2021/05/24 04:40:23;;;;;;;25.60;1.30;;;13.20;99.90;;;;;;5048771;28;20561;-82
2021/05/24 04:42:50;;;;;;;26.67;1.30;;;13.20;99.90;;;;;;5042777;28;20481;-83
2021/05/24 04:45:17;;;;;;;46.70;40.23;;;13.20;99.90;;;;;;5042830;28;20448;-84
2021/05/24 04:47:44;;;;;;;29.33;1.57;;;13.20;99.90;;;;;;5045125;28;20544;-84
2021/05/24 04:50:12;;;;;;;27.30;1.20;;;13.20;99.90;;;;;;5043130;28;20453;-86
2021/05/24 04:52:38;;;;;;;74.27;68.07;;;13.20;99.90;;;;;;5039162;28;20449;-83
2021/05/24 04:55:07;;;;;;;41.10;10.43;;;13.20;99.90;;;;;;5037241;28;20509;-84
2021/05/24 04:57:33;;;;;;;78.60;68.23;;;13.20;99.90;;;;;;5037216;28;20455;-82
2021/05/24 04:59:59;;;;;;;77.90;70.60;;;13.10;99.90;;;;;;5037564;28;20453;-84
2021/05/24 05:02:27;;;;;;;38.90;3.10;;;13.00;99.90;;;;;;5035670;28;20520;-82
2021/05/24 05:04:54;;;;;;;39.23;3.27;;;13.00;99.90;;;;;;5037786;28;20451;-82
2021/05/24 05:07:21;;;;;;;41.63;6.10;;;13.10;99.90;;;;;;5039731;28;20456;-84
2021/05/24 05:09:47;;;;;;;41.47;7.37;;;13.20;99.90;;;;;;5041500;28;20506;-82
2021/05/24 05:12:13;;;;;;;46.57;20.27;;;13.20;99.90;;;;;;5040709;28;20517;-82
2021/05/24 05:14:40;;;;;;;60.53;40.27;;;13.20;99.90;;;;;;5040759;28;20921;-82
2021/05/24 05:17:06;;;;;;;54.37;30.73;;;13.30;99.90;;;;;;5039077;28;20456;-82
2021/05/24 05:19:33;;;;;;;46.70;9.30;;;13.50;99.90;;;;;;5039474;28;20449;-82
2021/05/24 05:22:00;;;;;;;54.93;27.97;;;13.70;99.90;;;;;;5039973;28;20502;-84
2021/05/24 05:24:26;;;;;;;43.07;6.57;;;13.90;99.90;;;;;;5040207;28;20468;-83
2021/05/24 05:26:53;;;;;;;139.10;128.87;;;14.10;99.90;;;;;;5040157;28;20491;-83
2021/05/24 05:29:19;;;;;;;191.83;179.23;;;14.20;99.90;;;;;;5040211;28;20466;-81
2021/05/24 05:31:45;;;;;;;99.57;90.60;;;14.20;99.90;;;;;;5039771;28;20481;-81
2021/05/24 05:34:12;;;;;;;871.57;814.40;;;14.20;99.90;;;;;;5039898;28;20507;-83
2021/05/24 05:36:38;;;;;;;722.03;678.87;;;14.40;99.90;;;;;;5040028;28;20483;-82
2021/05/24 05:39:06;;;;;;;835.53;766.30;;;14.40;99.90;;;;;;5039631;28;20487;-84
2021/05/24 05:41:33;;;;;;;711.70;669.70;;;14.50;99.90;;;;;;5039670;28;20822;-84
2021/05/24 05:44:00;;;;;;;577.90;544.50;;;14.40;99.90;;;;;;5039161;28;20467;-82
2021/05/24 05:46:26;;;;;;;600.47;564.33;;;14.30;99.90;;;;;;5039311;28;20452;-81
2021/05/24 05:48:52;;;;;;;260.13;245.07;;;14.20;99.90;;;;;;5039523;28;20453;-84
2021/05/24 05:51:19;;;;;;;350.03;328.83;;;14.10;99.90;;;;;;5038224;28;20988;-86
2021/05/24 05:53:45;;;;;;;226.07;212.37;;;14.00;99.90;;;;;;5038360;28;20519;-84
2021/05/24 05:56:14;;;;;;;479.90;454.50;;;14.00;99.90;;;;;;5048182;28;20454;-83
2021/05/24 05:58:40;;;;;;;579.17;545.50;;;14.10;99.90;;;;;;5040342;28;20454;-85
2021/05/24 06:01:07;;;;;;;550.80;515.63;;;14.20;99.90;;;;;;5040844;28;20539;-85
2021/05/24 06:03:33;;;;;;;804.47;754.33;;;14.20;99.90;;;;;;5039231;28;21018;-84
2021/05/24 06:06:00;;;;;;;823.37;762.57;;;14.30;99.90;;;;;;5040278;28;20445;-86
2021/05/24 06:08:26;;;;;;;698.60;655.60;;;14.40;99.90;;;;;;5041045;28;20497;-84
2021/05/24 06:10:53;;;;;;;613.50;578.63;;;14.50;99.90;;;;;;5040885;28;20525;-85
2021/05/24 06:13:20;;;;;;;664.53;623.20;;;14.50;99.90;;;;;;5039475;28;20481;-83
2021/05/24 06:15:46;;;;;;;922.20;855.23;;;14.60;99.90;;;;;;5037307;28;20937;-84
2021/05/24 06:18:12;;;;;;;995.20;927.53;;;14.70;99.90;;;;;;5035690;28;20537;-85
2021/05/24 06:20:39;;;;;;;616.87;582.73;;;14.80;99.90;;;;;;5035111;28;20972;-83
2021/05/24 06:23:05;;;;;;;927.67;858.47;;;14.90;99.90;;;;;;5036882;28;20559;-83
2021/05/24 06:25:31;;;;;;;835.20;770.47;;;15.00;99.90;;;;;;5038454;28;20455;-85
2021/05/24 06:27:58;;;;;;;1006.07;929.03;;;15.00;99.90;;;;;;5037731;28;20528;-83
2021/05/24 06:30:25;;;;;;;902.53;839.90;;;15.10;99.90;;;;;;5037830;28;20470;-84
2021/05/24 06:32:51;;;;;;;926.40;863.30;;;15.10;99.90;;;;;;5038107;28;20508;-82
2021/05/24 06:35:19;;;;;;;911.73;853.10;;;15.20;99.90;;;;;;5038097;28;20596;-85
2021/05/24 06:37:46;;;;;;;1999.90;999.90;;;15.20;99.90;;;;;;5039481;28;20456;-83
2021/05/24 06:40:16;;;;;;;1999.90;999.90;;;15.30;99.90;;;;;;5037421;28;20499;-82
2021/05/24 06:42:43;;;;;;;1999.90;999.90;;;15.40;99.90;;;;;;5037815;28;20460;-84
2021/05/24 06:45:11;;;;;;;1999.90;999.90;;;15.50;99.90;;;;;;5039329;28;20457;-86
2021/05/24 06:47:39;;;;;;;1999.90;999.90;;;15.60;99.90;;;;;;5037523;28;20460;-86
2021/05/24 06:50:07;;;;;;;1999.90;999.90;;;15.70;99.90;;;;;;5038627;28;20478;-84
2021/05/24 06:52:33;;;;;;;1999.90;999.90;;;15.70;99.90;;;;;;5036750;28;20552;-83
2021/05/24 06:54:59;;;;;;;1999.90;999.90;;;15.70;99.90;;;;;;5037213;28;20568;-83
2021/05/24 06:57:26;;;;;;;1999.90;999.90;;;15.80;99.90;;;;;;5037548;28;20523;-84
2021/05/24 06:59:52;;;;;;;759.77;406.50;;;15.90;99.90;;;;;;5036904;28;20960;-84
2021/05/24 07:02:18;;;;;;;347.50;323.80;;;15.90;99.90;;;;;;5026403;28;20457;-81
2021/05/24 07:04:45;;;;;;;162.20;148.40;;;16.00;99.90;;;;;;5035905;28;21035;-83
2021/05/24 07:07:12;;;;;;;282.83;265.33;;;16.10;99.90;;;;;;5038919;28;20449;-84
2021/05/24 07:09:38;;;;;;;384.87;364.10;;;16.10;99.90;;;;;;5039298;28;20528;-83
2021/05/24 07:12:06;;;;;;;390.07;366.77;;;16.20;99.90;;;;;;5038234;28;20456;-84
2021/05/24 07:14:33;;;;;;;46.00;14.70;;;16.30;99.90;;;;;;5038637;28;20484;-83
2021/05/24 07:16:59;;;;;;;61.37;49.00;;;16.40;99.90;;;;;;5037613;28;20532;-82
2021/05/24 07:19:26;;;;;;;29.40;1.23;;;16.50;99.90;;;;;;5037996;28;20456;-83
2021/05/24 07:21:55;;;;;;;194.97;182.50;;;16.60;99.90;;;;;;5038142;28;20449;-84
2021/05/24 07:24:21;;;;;;;22.67;1.73;;;16.70;99.90;;;;;;5048222;28;20464;-83
2021/05/24 07:26:49;;;;;;;21.87;1.20;;;16.80;99.90;;;;;;5040510;28;20544;-83
2021/05/24 07:29:16;;;;;;;16.00;1.00;;;16.90;99.90;;;;;;5038045;28;20540;-85
2021/05/24 07:31:42;;;;;;;17.17;1.10;;;17.00;99.90;;;;;;5038444;28;20489;-83
2021/05/24 07:34:09;;;;;;;11.83;1.37;;;17.20;99.90;;;;;;5038334;28;20499;-84
2021/05/24 07:36:35;;;;;;;6.17;1.00;;;17.30;99.90;;;;;;5040116;28;20858;-86
2021/05/24 07:39:03;;;;;;;5.20;1.00;;;17.50;99.90;;;;;;5040397;28;20461;-83
2021/05/24 07:41:29;;;;;;;6.47;1.30;;;17.60;99.90;;;;;;5038162;28;20469;-83
2021/05/24 07:43:56;;;;;;;5.20;1.20;;;17.80;99.90;;;;;;5036437;28;21000;-83
2021/05/24 07:46:22;;;;;;;4.20;0.97;;;17.90;99.90;;;;;;5031007;28;20475;-83
2021/05/24 07:48:48;;;;;;;4.10;0.90;;;18.10;99.90;;;;;;5035088;28;20491;-81
2021/05/24 07:51:15;;;;;;;4.90;0.83;;;18.20;99.90;;;;;;5034513;28;20483;-83
2021/05/24 07:53:41;;;;;;;6.30;1.10;;;18.30;99.90;;;;;;5034364;28;20465;-83
2021/05/24 07:56:08;;;;;;;4.20;0.90;;;18.60;99.90;;;;;;5026147;28;20484;-83
2021/05/24 07:58:34;;;;;;;6.07;1.20;;;18.90;99.90;;;;;;5035150;28;20934;-85
2021/05/24 08:01:01;;;;;;;4.60;1.83;;;19.00;99.90;;;;;;5031663;28;20471;-83
2021/05/24 08:03:27;;;;;;;4.70;1.20;;;19.20;99.90;;;;;;5032479;28;20536;-83
2021/05/24 08:05:53;;;;;;;4.23;0.90;;;19.40;99.90;;;;;;5031074;28;20528;-82
2021/05/24 08:08:20;;;;;;;6.73;1.10;;;19.50;99.90;;;;;;5035183;28;20921;-84
2021/05/24 08:10:47;;;;;;;4.60;1.00;;;19.60;99.90;;;;;;5034911;28;20543;-85
2021/05/24 08:13:14;;;;;;;4.37;1.23;;;19.50;99.90;;;;;;5034572;28;20473;-83
2021/05/24 08:15:41;;;;;;;5.57;1.10;;;19.60;99.90;;;;;;5032407;28;20556;-83
2021/05/24 08:18:08;;;;;;;4.80;1.00;;;19.80;99.90;;;;;;5034867;28;20533;-83
2021/05/24 08:20:36;;;;;;;5.80;1.20;;;19.80;99.90;;;;;;5033770;28;20469;-82
2021/05/24 08:23:03;;;;;;;5.03;1.00;;;20.00;99.90;;;;;;5024568;28;20564;-81
2021/05/24 08:25:29;;;;;;;5.60;0.90;;;20.10;99.90;;;;;;5034581;28;20554;-82
2021/05/24 08:27:55;;;;;;;4.70;0.90;;;20.30;99.90;;;;;;5035579;28;20465;-82
2021/05/24 08:30:24;;;;;;;6.70;1.03;;;20.60;99.90;;;;;;5035763;28;21036;-83
2021/05/24 08:32:50;;;;;;;4.10;1.10;;;21.40;99.90;;;;;;5037658;28;20532;-79
2021/05/24 08:35:17;;;;;;;6.03;1.03;;;21.90;99.90;;;;;;5037806;28;20545;-80
2021/05/24 08:37:43;;;;;;;3.73;0.90;;;21.90;99.90;;;;;;5036879;28;20452;-81
2021/05/24 08:40:11;;;;;;;5.20;0.97;;;22.10;99.90;;;;;;5039369;28;20457;-83
2021/05/24 08:42:41;;;;;;;5.70;0.83;;;21.90;99.90;;;;;;5042608;28;20456;-82
2021/05/24 08:45:08;;;;;;;5.33;1.27;;;21.70;99.90;;;;;;5043095;28;20440;-85
2021/05/24 08:47:36;;;;;;;4.60;1.13;;;21.10;99.90;;;;;;5043237;28;20504;-83
2021/05/24 08:50:04;;;;;;;5.40;1.33;;;20.70;99.90;;;;;;5040510;28;20433;-82
2021/05/24 08:52:31;;;;;;;4.53;0.90;;;20.60;99.90;;;;;;5038582;28;20451;-83
2021/05/24 08:54:57;;;;;;;5.77;1.10;;;20.90;99.90;;;;;;5032957;28;20499;-82
2021/05/24 08:57:24;;;;;;;5.07;0.87;;;20.40;99.90;;;;;;5045986;28;20453;-81
2021/05/24 08:59:51;;;;;;;5.97;1.10;;;20.20;99.90;;;;;;5029186;28;20488;-82
2021/05/24 09:02:17;;;;;;;6.07;1.00;;;19.70;99.90;;;;;;5039173;28;20453;-82
2021/05/24 09:04:47;;;;;;;5.33;1.13;;;19.40;99.90;;;;;;5040170;28;20587;-82
2021/05/24 09:07:14;;;;;;;5.60;0.90;;;19.10;99.90;;;;;;5028464;28;20499;-81
2021/05/24 09:09:56;;;;;;;4.47;0.87;;;19.00;99.90;;;;;;5037753;28;20541;-82
2021/05/24 09:12:30;;;;;;;4.80;1.10;;;18.90;99.90;;;;;;5026267;28;20547;-82
2021/05/24 09:14:58;;;;;;;5.63;1.30;;;18.60;99.90;;;;;;5042752;28;20966;-82
2021/05/24 09:17:24;;;;;;;7.10;1.10;;;18.30;99.90;;;;;;5039683;28;20449;-81
2021/05/24 09:19:52;;;;;;;3.80;0.90;;;18.30;99.90;;;;;;5026864;28;20441;-81
2021/05/24 09:22:22;;;;;;;5.30;0.90;;;18.20;99.90;;;;;;5036584;28;20445;-82
2021/05/24 09:24:50;;;;;;;3.80;0.80;;;18.30;99.90;;;;;;5041789;28;20452;-81
2021/05/24 09:27:28;;;;;;;5.20;1.30;;;18.40;99.90;;;;;;5038360;28;20502;-82
2021/05/24 09:30:00;;;;;;;3.90;1.00;;;18.50;99.90;;;;;;5040978;28;20598;-82
2021/05/24 09:32:29;;;;;;;4.87;1.00;;;18.70;99.90;;;;;;5041338;28;20449;-82
2021/05/24 09:35:00;;;;;;;4.27;0.80;;;18.60;99.90;;;;;;5041627;28;20489;-82
2021/05/24 09:37:31;;;;;;;6.03;1.20;;;18.60;99.90;;;;;;5042270;28;20844;-83
2021/05/24 09:39:58;;;;;;;4.53;1.23;;;18.80;99.90;;;;;;5043731;28;20456;-82
2021/05/24 09:42:25;;;;;;;4.60;2.30;;;18.80;99.90;;;;;;5040552;28;20969;-81
2021/05/24 09:44:53;;;;;;;7.93;1.10;;;19.10;99.90;;;;;;5040158;28;20452;-82
2021/05/24 09:47:33;;;;;;;4.87;0.90;;;19.10;99.90;;;;;;5040727;28;20448;-81
2021/05/24 09:50:09;;;;;;;7.60;1.20;;;19.20;99.90;;;;;;5040630;28;20488;-83
2021/05/24 09:52:36;;;;;;;9.83;1.17;;;19.10;99.90;;;;;;5037251;28;20479;-82
2021/05/24 09:55:14;;;;;;;5.60;1.10;;;19.30;99.90;;;;;;5044839;28;20477;-81
2021/05/24 09:57:51;;;;;;;5.13;1.00;;;19.10;99.90;;;;;;5051583;28;20440;-80
2021/05/24 10:00:21;;;;;;;5.83;1.27;;;19.10;99.90;;;;;;5053268;28;20512;-81
2021/05/24 10:02:47;;;;;;;6.23;1.30;;;19.50;99.90;;;;;;5050791;28;20472;-81
2021/05/24 10:05:15;;;;;;;4.53;1.17;;;19.80;99.90;;;;;;5047286;28;20445;-84
2021/05/24 10:07:42;;;;;;;5.10;1.00;;;20.60;99.90;;;;;;5040964;28;20465;-80
2021/05/24 10:10:10;;;;;;;7.10;1.17;;;20.50;99.90;;;;;;5038314;28;20840;-81
2021/05/24 10:12:37;;;;;;;4.07;1.00;;;21.20;99.90;;;;;;5037781;28;20447;-80
2021/05/24 10:15:09;;;;;;;5.40;1.10;;;22.40;99.90;;;;;;5039743;28;20485;-82
2021/05/24 10:17:42;;;;;;;8.70;1.63;;;22.70;99.90;;;;;;5039373;28;20514;-81
2021/05/24 10:20:10;;;;;;;4.90;0.90;;;23.00;99.90;;;;;;5038792;28;20468;-82
2021/05/24 10:22:37;;;;;;;5.07;1.00;;;22.60;99.70;;;;;;5031355;28;20448;-81
2021/05/24 10:25:04;;;;;;;6.63;1.20;;;22.20;99.90;;;;;;5032336;28;20453;-83
2021/05/24 10:27:31;;;;;;;5.00;1.20;;;22.20;99.90;;;;;;5037296;28;20449;-82
2021/05/24 10:29:58;;;;;;;5.60;1.20;;;21.60;99.90;;;;;;5039522;28;20454;-81
2021/05/24 10:32:30;;;;;;;4.67;1.07;;;21.20;99.90;;;;;;5039115;28;20540;-80
2021/05/24 10:34:59;;;;;;;8.03;1.53;;;20.80;99.90;;;;;;5037652;28;20992;-80
2021/05/24 10:37:26;;;;;;;10.47;1.70;;;20.70;99.90;;;;;;5039576;28;20544;-80
2021/05/24 10:39:59;;;;;;;5.10;1.40;;;20.40;99.90;;;;;;5039754;28;20461;-81
2021/05/24 10:42:36;;;;;;;6.00;0.90;;;19.80;99.90;;;;;;5036367;28;20495;-81
2021/05/24 10:45:16;;;;;;;4.77;1.00;;;19.40;99.90;;;;;;5036960;28;20479;-82
2021/05/24 10:47:51;;;;;;;6.10;1.23;;;18.70;99.90;;;;;;5037705;28;20444;-81
2021/05/24 10:50:19;;;;;;;5.93;1.33;;;18.30;99.90;;;;;;5037320;28;20456;-82
2021/05/24 10:52:55;;;;;;;5.80;1.43;;;18.00;99.90;;;;;;5037818;28;20473;-82
2021/05/24 10:55:38;;;;;;;7.00;2.13;;;17.70;99.90;;;;;;5059034;23;20492;-84
2021/05/24 10:58:06;;;;;;;7.67;2.07;;;17.40;99.90;;;;;;5041464;28;20479;-83
2021/05/24 11:00:50;;;;;;;6.57;1.40;;;17.00;99.90;;;;;;5041172;28;20503;-82
2021/05/24 11:03:16;;;;;;;6.53;1.20;;;16.80;99.90;;;;;;5039912;28;20444;-85
2021/05/24 11:05:47;;;;;;;5.57;1.17;;;16.60;99.90;;;;;;5040941;28;20483;-82
2021/05/24 11:08:26;;;;;;;7.33;1.40;;;16.40;99.90;;;;;;5041502;28;21005;-82
2021/05/24 11:10:53;;;;;;;168.97;153.67;;;16.50;99.90;;;;;;5034453;28;20939;-85
2021/05/24 11:13:26;;;;;;;9.60;2.33;;;16.50;99.90;;;;;;5041219;28;20448;-82
2021/05/24 11:15:53;;;;;;;9.40;1.23;;;16.50;99.90;;;;;;5040857;28;20490;-84
2021/05/24 11:18:26;;;;;;;9.27;2.10;;;16.50;99.90;;;;;;5041326;28;20540;-85
2021/05/24 11:20:58;;;;;;;9.43;2.00;;;16.70;99.90;;;;;;5028430;28;20529;-84
2021/05/24 11:23:32;;;;;;;11.20;3.10;;;17.00;99.90;;;;;;5035246;28;20455;-83
2021/05/24 11:26:29;;;;;;;11.20;4.70;;;17.30;99.90;;;;;;5035203;28;21299;-84
2021/05/24 11:28:59;;;;;;;6.57;3.40;;;17.40;99.90;;;;;;5036635;28;20477;-84
2021/05/24 11:31:29;;;;;;;5.93;1.37;;;17.70;99.90;;;;;;5033859;28;20947;-84
2021/05/24 11:33:57;;;;;;;6.00;1.27;;;17.80;99.90;;;;;;5036087;28;20445;-83
2021/05/24 11:36:51;;;;;;;7.20;1.50;;;17.90;99.90;;;;;;5035228;28;20553;-85
2021/05/24 11:39:21;;;;;;;10.87;2.90;;;17.80;99.90;;;;;;5036100;28;20905;-84
2021/05/24 11:41:53;;;;;;;3.97;0.90;;;18.00;99.90;;;;;;5037750;28;20475;-85
2021/05/24 11:44:21;;;;;;;5.90;1.30;;;18.20;99.90;;;;;;5038029;28;21050;-84
2021/05/24 11:46:49;;;;;;;5.50;2.43;;;18.20;99.90;;;;;;5036936;28;20445;-85
2021/05/24 11:49:17;;;;;;;5.50;1.10;;;18.20;99.90;;;;;;5039935;28;20940;-85
2021/05/24 11:51:45;;;;;;;7.80;1.30;;;18.30;99.90;;;;;;5037725;28;20453;-84
2021/05/24 11:54:14;;;;;;;3.80;0.80;;;18.40;99.90;;;;;;5038671;28;20455;-84
2021/05/24 11:56:43;;;;;;;4.80;1.03;;;18.10;99.90;;;;;;5037739;28;20535;-84
2021/05/24 11:59:12;;;;;;;4.87;1.00;;;18.20;99.90;;;;;;5039079;28;20540;-86
2021/05/24 12:01:40;;;;;;;5.00;1.00;;;18.00;99.90;;;;;;5036264;28;20524;-85
2021/05/24 12:04:09;;;;;;;5.40;1.00;;;18.00;99.90;;;;;;5022519;28;20451;-85
2021/05/24 12:06:48;;;;;;;5.00;1.20;;;17.70;99.90;;;;;;5035030;28;20868;-84
2021/05/24 12:09:31;;;;;;;5.87;1.03;;;17.70;99.90;;;;;;5033365;28;20544;-83
2021/05/24 12:11:58;;;;;;;5.20;1.00;;;17.70;99.90;;;;;;5031306;28;20449;-84
2021/05/24 12:14:26;;;;;;;7.97;1.10;;;17.60;99.90;;;;;;5037625;28;20475;-84
2021/05/24 12:16:54;;;;;;;6.63;1.10;;;17.70;99.90;;;;;;5043550;28;20539;-84
2021/05/24 12:19:23;;;;;;;92.70;84.10;;;17.20;99.90;;;;;;5044433;28;20447;-84
2021/05/24 12:21:49;;;;;;;877.37;814.17;;;17.00;99.90;;;;;;5043136;28;20520;-84
2021/05/24 12:24:18;;;;;;;1999.90;999.90;;;16.70;99.90;;;;;;5043949;28;20538;-83
2021/05/24 12:26:50;;;;;;;641.00;598.63;;;16.50;99.90;;;;;;5042232;28;20467;-85
2021/05/24 12:29:22;;;;;;;241.67;221.17;;;16.30;99.90;;;;;;5042339;28;20448;-82
2021/05/24 12:31:51;;;;;;;1999.90;999.90;;;16.20;99.90;;;;;;5041556;28;20451;-84
2021/05/24 12:34:22;;;;;;;1999.90;999.90;;;16.10;99.90;;;;;;5038883;28;20479;-84
2021/05/24 12:36:54;;;;;;;1124.70;756.13;;;15.90;99.90;;;;;;5042094;28;20457;-84